Cordislandia, Brazil
Current Conditions -  °F | °C
As of 3:00 PM on Saturday 20 Dec 2014 (Local Time) from SBGW Reporting Station
Broken Clouds Broken Clouds  
Wind Chill: 84°   Ceiling: 10000
Heat Index: 87°   Visibility: 6mi
Dew Point: 68°   Wind: 5mph
Humidity: 58%   Direction: 210°SSW
Pressure: 29.88"   Gusts: NA
Location:  21.79°S, 45.7°W
Report Text: SBGW 201700Z 21004KT 9999 SCT025 BKN100 29/20 Q1012
Loading
Personal Weather Stations






























Interactive Weather Map New forecast layout! Learn more

10-Day Weather Forecast

Advertisements
Track Severe Weather on mobile